sensor_id;sensor_type;location;lat;lon;timestamp;P1;durP1;ratioP1;P2;durP2;ratioP2
46745;SDS011;32493;50.514;9.678;2024-03-23T00:53:20;56.92;;;24.88;;
46745;SDS011;32493;50.514;9.678;2024-03-23T00:55:47;54.53;;;23.80;;
46745;SDS011;32493;50.514;9.678;2024-03-23T00:58:15;48.50;;;23.52;;
46745;SDS011;32493;50.514;9.678;2024-03-23T01:00:43;53.70;;;24.05;;
46745;SDS011;32493;50.514;9.678;2024-03-23T01:03:09;45.08;;;23.38;;
46745;SDS011;32493;50.514;9.678;2024-03-23T01:05:38;51.33;;;24.80;;
46745;SDS011;32493;50.514;9.678;2024-03-23T01:08:05;48.92;;;25.20;;
46745;SDS011;32493;50.514;9.678;2024-03-23T01:10:34;46.90;;;22.83;;
46745;SDS011;32493;50.514;9.678;2024-03-23T01:13:02;41.95;;;20.92;;
46745;SDS011;32493;50.514;9.678;2024-03-23T01:15:31;44.60;;;22.10;;
46745;SDS011;32493;50.514;9.678;2024-03-23T01:17:57;39.80;;;21.60;;
46745;SDS011;32493;50.514;9.678;2024-03-23T01:20:37;41.47;;;21.70;;
46745;SDS011;32493;50.514;9.678;2024-03-23T01:23:06;38.67;;;20.08;;
46745;SDS011;32493;50.514;9.678;2024-03-23T01:25:36;39.45;;;20.95;;
46745;SDS011;32493;50.514;9.678;2024-03-23T01:28:02;35.75;;;20.08;;
46745;SDS011;32493;50.514;9.678;2024-03-23T01:30:30;41.95;;;20.38;;
46745;SDS011;32493;50.514;9.678;2024-03-23T01:32:57;35.45;;;20.02;;
46745;SDS011;32493;50.514;9.678;2024-03-23T01:35:23;43.95;;;20.30;;
46745;SDS011;32493;50.514;9.678;2024-03-23T01:37:49;54.67;;;22.52;;
46745;SDS011;32493;50.514;9.678;2024-03-23T01:40:17;51.55;;;20.80;;
46745;SDS011;32493;50.514;9.678;2024-03-23T01:42:58;47.72;;;21.40;;
46745;SDS011;32493;50.514;9.678;2024-03-23T01:45:30;41.17;;;20.45;;
46745;SDS011;32493;50.514;9.678;2024-03-23T01:47:58;34.95;;;20.58;;
46745;SDS011;32493;50.514;9.678;2024-03-23T01:50:24;41.58;;;20.83;;
46745;SDS011;32493;50.514;9.678;2024-03-23T01:52:53;37.85;;;20.55;;
46745;SDS011;32493;50.514;9.678;2024-03-23T01:55:27;39.22;;;21.80;;
46745;SDS011;32493;50.514;9.678;2024-03-23T01:57:58;42.40;;;21.00;;
46745;SDS011;32493;50.514;9.678;2024-03-23T02:00:28;41.42;;;21.40;;
46745;SDS011;32493;50.514;9.678;2024-03-23T02:03:00;37.33;;;19.75;;
46745;SDS011;32493;50.514;9.678;2024-03-23T02:05:32;38.78;;;20.40;;
46745;SDS011;32493;50.514;9.678;2024-03-23T02:07:58;40.65;;;20.77;;
46745;SDS011;32493;50.514;9.678;2024-03-23T02:10:29;43.97;;;21.00;;
46745;SDS011;32493;50.514;9.678;2024-03-23T02:13:00;38.83;;;20.65;;
46745;SDS011;32493;50.514;9.678;2024-03-23T02:15:32;37.55;;;18.80;;
46745;SDS011;32493;50.514;9.678;2024-03-23T02:17:59;39.70;;;20.65;;
46745;SDS011;32493;50.514;9.678;2024-03-23T02:20:29;41.45;;;18.17;;
46745;SDS011;32493;50.514;9.678;2024-03-23T02:23:00;33.45;;;18.83;;
46745;SDS011;32493;50.514;9.678;2024-03-23T02:25:28;38.95;;;19.33;;
46745;SDS011;32493;50.514;9.678;2024-03-23T02:27:55;37.85;;;19.55;;
46745;SDS011;32493;50.514;9.678;2024-03-23T02:30:25;39.28;;;20.15;;
46745;SDS011;32493;50.514;9.678;2024-03-23T02:32:54;40.70;;;20.08;;
46745;SDS011;32493;50.514;9.678;2024-03-23T02:35:22;35.47;;;18.58;;
46745;SDS011;32493;50.514;9.678;2024-03-23T02:40:22;34.45;;;18.40;;
46745;SDS011;32493;50.514;9.678;2024-03-23T02:42:53;33.70;;;18.73;;
46745;SDS011;32493;50.514;9.678;2024-03-23T02:45:22;34.83;;;18.58;;
46745;SDS011;32493;50.514;9.678;2024-03-23T02:47:48;38.10;;;20.15;;
46745;SDS011;32493;50.514;9.678;2024-03-23T02:50:17;41.08;;;19.85;;
46745;SDS011;32493;50.514;9.678;2024-03-23T02:52:49;36.65;;;19.33;;
46745;SDS011;32493;50.514;9.678;2024-03-23T02:55:15;40.53;;;20.13;;
46745;SDS011;32493;50.514;9.678;2024-03-23T02:57:46;40.25;;;21.38;;
46745;SDS011;32493;50.514;9.678;2024-03-23T03:00:15;41.65;;;20.52;;
46745;SDS011;32493;50.514;9.678;2024-03-23T03:02:43;39.95;;;20.23;;
46745;SDS011;32493;50.514;9.678;2024-03-23T03:05:11;40.67;;;20.45;;
46745;SDS011;32493;50.514;9.678;2024-03-23T03:07:39;37.75;;;19.92;;
46745;SDS011;32493;50.514;9.678;2024-03-23T03:10:05;35.08;;;19.70;;
46745;SDS011;32493;50.514;9.678;2024-03-23T03:12:32;37.83;;;19.25;;
46745;SDS011;32493;50.514;9.678;2024-03-23T03:15:04;39.10;;;20.15;;
46745;SDS011;32493;50.514;9.678;2024-03-23T03:17:31;37.45;;;19.73;;
46745;SDS011;32493;50.514;9.678;2024-03-23T03:20:01;45.63;;;20.50;;
46745;SDS011;32493;50.514;9.678;2024-03-23T03:22:30;38.53;;;19.17;;
46745;SDS011;32493;50.514;9.678;2024-03-23T03:24:57;37.33;;;18.70;;
46745;SDS011;32493;50.514;9.678;2024-03-23T03:27:28;39.40;;;19.42;;
46745;SDS011;32493;50.514;9.678;2024-03-23T03:29:54;41.22;;;21.15;;
46745;SDS011;32493;50.514;9.678;2024-03-23T03:32:26;47.67;;;22.08;;
46745;SDS011;32493;50.514;9.678;2024-03-23T03:34:52;47.38;;;23.48;;
46745;SDS011;32493;50.514;9.678;2024-03-23T03:37:20;43.38;;;22.70;;
46745;SDS011;32493;50.514;9.678;2024-03-23T03:39:48;41.35;;;23.42;;
46745;SDS011;32493;50.514;9.678;2024-03-23T03:42:15;48.10;;;24.33;;
46745;SDS011;32493;50.514;9.678;2024-03-23T03:44:46;46.05;;;24.50;;
46745;SDS011;32493;50.514;9.678;2024-03-23T03:47:15;50.05;;;23.30;;
46745;SDS011;32493;50.514;9.678;2024-03-23T03:49:47;46.25;;;24.38;;
46745;SDS011;32493;50.514;9.678;2024-03-23T03:52:13;45.33;;;23.63;;
46745;SDS011;32493;50.514;9.678;2024-03-23T03:54:40;48.83;;;23.92;;
46745;SDS011;32493;50.514;9.678;2024-03-23T03:57:11;44.50;;;23.38;;
46745;SDS011;32493;50.514;9.678;2024-03-23T04:02:05;42.05;;;21.90;;
46745;SDS011;32493;50.514;9.678;2024-03-23T04:04:33;41.45;;;22.73;;
46745;SDS011;32493;50.514;9.678;2024-03-23T04:07:04;42.38;;;23.17;;
46745;SDS011;32493;50.514;9.678;2024-03-23T04:09:30;47.67;;;23.38;;
46745;SDS011;32493;50.514;9.678;2024-03-23T04:11:57;48.50;;;23.95;;
46745;SDS011;32493;50.514;9.678;2024-03-23T04:14:23;47.60;;;24.10;;
46745;SDS011;32493;50.514;9.678;2024-03-23T04:16:49;40.85;;;22.60;;
46745;SDS011;32493;50.514;9.678;2024-03-23T04:19:16;41.00;;;23.30;;
46745;SDS011;32493;50.514;9.678;2024-03-23T04:21:48;42.13;;;23.70;;
46745;SDS011;32493;50.514;9.678;2024-03-23T04:24:20;45.35;;;21.70;;
46745;SDS011;32493;50.514;9.678;2024-03-23T04:26:50;42.63;;;21.45;;
46745;SDS011;32493;50.514;9.678;2024-03-23T04:29:19;37.00;;;21.08;;
46745;SDS011;32493;50.514;9.678;2024-03-23T04:31:48;42.22;;;21.83;;
46745;SDS011;32493;50.514;9.678;2024-03-23T04:34:18;44.90;;;22.80;;
46745;SDS011;32493;50.514;9.678;2024-03-23T04:36:46;46.58;;;23.27;;
46745;SDS011;32493;50.514;9.678;2024-03-23T04:39:15;41.47;;;22.58;;
46745;SDS011;32493;50.514;9.678;2024-03-23T04:41:47;42.85;;;22.83;;
46745;SDS011;32493;50.514;9.678;2024-03-23T04:44:15;44.75;;;24.45;;
46745;SDS011;32493;50.514;9.678;2024-03-23T04:46:44;45.17;;;24.45;;
46745;SDS011;32493;50.514;9.678;2024-03-23T04:49:15;48.55;;;24.48;;
46745;SDS011;32493;50.514;9.678;2024-03-23T04:51:41;45.30;;;23.98;;
46745;SDS011;32493;50.514;9.678;2024-03-23T04:54:10;46.78;;;23.95;;
46745;SDS011;32493;50.514;9.678;2024-03-23T04:56:36;51.55;;;25.10;;
46745;SDS011;32493;50.514;9.678;2024-03-23T04:59:07;47.72;;;25.42;;
46745;SDS011;32493;50.514;9.678;2024-03-23T05:01:34;46.47;;;25.00;;
46745;SDS011;32493;50.514;9.678;2024-03-23T05:04:02;46.22;;;24.85;;
46745;SDS011;32493;50.514;9.678;2024-03-23T05:06:30;54.58;;;25.17;;
46745;SDS011;32493;50.514;9.678;2024-03-23T05:08:57;49.47;;;25.65;;
46745;SDS011;32493;50.514;9.678;2024-03-23T05:11:24;58.75;;;26.75;;
46745;SDS011;32493;50.514;9.678;2024-03-23T05:13:50;48.60;;;24.48;;
46745;SDS011;32493;50.514;9.678;2024-03-23T05:16:19;53.42;;;26.02;;
46745;SDS011;32493;50.514;9.678;2024-03-23T05:18:45;48.42;;;24.77;;
46745;SDS011;32493;50.514;9.678;2024-03-23T05:21:23;50.38;;;24.42;;
46745;SDS011;32493;50.514;9.678;2024-03-23T05:23:49;59.42;;;25.23;;
46745;SDS011;32493;50.514;9.678;2024-03-23T05:26:17;46.60;;;26.00;;
46745;SDS011;32493;50.514;9.678;2024-03-23T05:28:45;54.13;;;26.92;;
46745;SDS011;32493;50.514;9.678;2024-03-23T05:31:12;43.07;;;19.83;;
46745;SDS011;32493;50.514;9.678;2024-03-23T05:33:43;42.05;;;19.23;;
46745;SDS011;32493;50.514;9.678;2024-03-23T05:36:10;14.07;;;7.32;;
46745;SDS011;32493;50.514;9.678;2024-03-23T05:38:39;12.10;;;5.40;;
46745;SDS011;32493;50.514;9.678;2024-03-23T05:41:08;7.28;;;3.38;;
46745;SDS011;32493;50.514;9.678;2024-03-23T05:43:34;3.50;;;1.83;;
46745;SDS011;32493;50.514;9.678;2024-03-23T05:46:02;3.70;;;2.03;;
46745;SDS011;32493;50.514;9.678;2024-03-23T05:48:32;3.55;;;1.80;;
46745;SDS011;32493;50.514;9.678;2024-03-23T05:51:04;3.53;;;1.50;;
46745;SDS011;32493;50.514;9.678;2024-03-23T05:53:30;3.67;;;1.20;;
46745;SDS011;32493;50.514;9.678;2024-03-23T05:56:00;3.30;;;1.38;;
46745;SDS011;32493;50.514;9.678;2024-03-23T05:58:28;3.95;;;1.63;;
46745;SDS011;32493;50.514;9.678;2024-03-23T06:00:56;2.60;;;1.42;;
46745;SDS011;32493;50.514;9.678;2024-03-23T06:03:23;5.18;;;1.48;;
46745;SDS011;32493;50.514;9.678;2024-03-23T06:05:50;1.58;;;0.90;;
46745;SDS011;32493;50.514;9.678;2024-03-23T06:10:53;2.60;;;1.17;;
46745;SDS011;32493;50.514;9.678;2024-03-23T06:13:20;3.00;;;1.30;;
46745;SDS011;32493;50.514;9.678;2024-03-23T06:15:46;2.20;;;0.95;;
46745;SDS011;32493;50.514;9.678;2024-03-23T06:18:16;2.42;;;1.15;;
46745;SDS011;32493;50.514;9.678;2024-03-23T06:20:43;2.90;;;1.50;;
46745;SDS011;32493;50.514;9.678;2024-03-23T06:23:11;3.63;;;1.73;;
46745;SDS011;32493;50.514;9.678;2024-03-23T06:25:44;1.77;;;0.98;;
46745;SDS011;32493;50.514;9.678;2024-03-23T06:28:13;1.70;;;1.20;;
46745;SDS011;32493;50.514;9.678;2024-03-23T06:30:42;1.88;;;0.82;;
46745;SDS011;32493;50.514;9.678;2024-03-23T06:33:08;0.40;;;0.35;;
46745;SDS011;32493;50.514;9.678;2024-03-23T06:35:39;0.80;;;0.50;;
46745;SDS011;32493;50.514;9.678;2024-03-23T06:38:05;2.95;;;0.60;;
46745;SDS011;32493;50.514;9.678;2024-03-23T06:40:31;1.00;;;0.50;;
46745;SDS011;32493;50.514;9.678;2024-03-23T06:43:03;3.47;;;0.57;;
46745;SDS011;32493;50.514;9.678;2024-03-23T06:45:33;0.50;;;0.30;;
46745;SDS011;32493;50.514;9.678;2024-03-23T06:48:02;0.60;;;0.13;;
46745;SDS011;32493;50.514;9.678;2024-03-23T06:50:29;0.40;;;0.28;;
46745;SDS011;32493;50.514;9.678;2024-03-23T06:53:00;0.63;;;0.30;;
46745;SDS011;32493;50.514;9.678;2024-03-23T06:55:30;0.38;;;0.25;;
46745;SDS011;32493;50.514;9.678;2024-03-23T06:57:59;0.40;;;0.30;;
46745;SDS011;32493;50.514;9.678;2024-03-23T07:00:30;0.20;;;0.17;;
46745;SDS011;32493;50.514;9.678;2024-03-23T07:02:57;0.25;;;0.20;;
46745;SDS011;32493;50.514;9.678;2024-03-23T07:05:26;2.22;;;0.20;;
46745;SDS011;32493;50.514;9.678;2024-03-23T07:07:54;0.30;;;0.20;;
46745;SDS011;32493;50.514;9.678;2024-03-23T07:10:24;1.50;;;0.50;;
46745;SDS011;32493;50.514;9.678;2024-03-23T07:12:52;0.32;;;0.25;;
46745;SDS011;32493;50.514;9.678;2024-03-23T07:15:21;1.48;;;0.20;;
46745;SDS011;32493;50.514;9.678;2024-03-23T07:20:19;0.45;;;0.30;;
46745;SDS011;32493;50.514;9.678;2024-03-23T07:22:46;0.20;;;0.20;;
46745;SDS011;32493;50.514;9.678;2024-03-23T07:25:15;0.45;;;0.20;;
46745;SDS011;32493;50.514;9.678;2024-03-23T07:27:50;0.10;;;0.10;;
46745;SDS011;32493;50.514;9.678;2024-03-23T07:30:17;0.13;;;0.13;;
46745;SDS011;32493;50.514;9.678;2024-03-23T07:32:44;3.20;;;0.30;;
46745;SDS011;32493;50.514;9.678;2024-03-23T07:35:14;0.45;;;0.10;;
46745;SDS011;32493;50.514;9.678;2024-03-23T07:37:42;0.20;;;0.20;;
46745;SDS011;32493;50.514;9.678;2024-03-23T07:40:10;0.20;;;0.20;;
46745;SDS011;32493;50.514;9.678;2024-03-23T07:42:37;0.20;;;0.13;;
46745;SDS011;32493;50.514;9.678;2024-03-23T07:45:05;0.40;;;0.40;;
46745;SDS011;32493;50.514;9.678;2024-03-23T07:47:31;0.57;;;0.30;;
46745;SDS011;32493;50.514;9.678;2024-03-23T07:49:58;0.50;;;0.25;;
46745;SDS011;32493;50.514;9.678;2024-03-23T07:52:31;0.50;;;0.40;;
46745;SDS011;32493;50.514;9.678;2024-03-23T07:55:01;1.48;;;0.50;;
46745;SDS011;32493;50.514;9.678;2024-03-23T07:57:28;0.40;;;0.40;;
46745;SDS011;32493;50.514;9.678;2024-03-23T07:59:55;1.23;;;0.38;;
46745;SDS011;32493;50.514;9.678;2024-03-23T08:02:26;2.22;;;0.30;;
46745;SDS011;32493;50.514;9.678;2024-03-23T08:04:56;4.90;;;0.50;;
46745;SDS011;32493;50.514;9.678;2024-03-23T08:07:25;1.00;;;0.50;;
46745;SDS011;32493;50.514;9.678;2024-03-23T08:09:54;1.50;;;0.90;;
46745;SDS011;32493;50.514;9.678;2024-03-23T08:12:25;1.45;;;0.45;;
46745;SDS011;32493;50.514;9.678;2024-03-23T08:14:52;0.57;;;0.22;;
46745;SDS011;32493;50.514;9.678;2024-03-23T08:17:20;1.92;;;0.98;;
46745;SDS011;32493;50.514;9.678;2024-03-23T08:19:50;2.05;;;0.47;;
46745;SDS011;32493;50.514;9.678;2024-03-23T08:22:16;0.70;;;0.40;;
46745;SDS011;32493;50.514;9.678;2024-03-23T08:24:45;1.40;;;0.70;;
46745;SDS011;32493;50.514;9.678;2024-03-23T08:27:18;1.33;;;0.40;;
46745;SDS011;32493;50.514;9.678;2024-03-23T08:29:49;3.22;;;0.88;;
46745;SDS011;32493;50.514;9.678;2024-03-23T08:32:16;2.85;;;0.88;;
46745;SDS011;32493;50.514;9.678;2024-03-23T08:34:45;2.95;;;0.80;;
46745;SDS011;32493;50.514;9.678;2024-03-23T08:37:14;2.78;;;0.80;;
46745;SDS011;32493;50.514;9.678;2024-03-23T08:39:42;4.80;;;0.80;;
46745;SDS011;32493;50.514;9.678;2024-03-23T08:42:10;2.08;;;0.85;;
46745;SDS011;32493;50.514;9.678;2024-03-23T08:44:42;3.03;;;0.70;;
46745;SDS011;32493;50.514;9.678;2024-03-23T08:47:08;2.92;;;0.80;;
46745;SDS011;32493;50.514;9.678;2024-03-23T08:49:36;2.97;;;1.02;;
46745;SDS011;32493;50.514;9.678;2024-03-23T08:52:05;3.70;;;0.70;;
46745;SDS011;32493;50.514;9.678;2024-03-23T08:54:32;4.38;;;1.27;;
46745;SDS011;32493;50.514;9.678;2024-03-23T08:57:01;2.92;;;0.40;;
46745;SDS011;32493;50.514;9.678;2024-03-23T08:59:29;5.03;;;0.60;;
46745;SDS011;32493;50.514;9.678;2024-03-23T09:02:01;1.35;;;0.57;;
46745;SDS011;32493;50.514;9.678;2024-03-23T09:04:28;2.67;;;0.40;;
46745;SDS011;32493;50.514;9.678;2024-03-23T09:06:56;2.10;;;0.60;;
46745;SDS011;32493;50.514;9.678;2024-03-23T09:09:24;2.08;;;0.40;;
46745;SDS011;32493;50.514;9.678;2024-03-23T09:11:55;1.52;;;0.70;;
46745;SDS011;32493;50.514;9.678;2024-03-23T09:14:21;2.30;;;0.63;;
46745;SDS011;32493;50.514;9.678;2024-03-23T09:16:49;2.30;;;0.60;;
46745;SDS011;32493;50.514;9.678;2024-03-23T09:19:19;2.50;;;0.85;;
46745;SDS011;32493;50.514;9.678;2024-03-23T09:21:47;3.30;;;1.02;;
46745;SDS011;32493;50.514;9.678;2024-03-23T09:24:17;4.38;;;1.00;;
46745;SDS011;32493;50.514;9.678;2024-03-23T09:26:46;3.15;;;1.27;;
46745;SDS011;32493;50.514;9.678;2024-03-23T09:29:13;2.60;;;1.00;;
46745;SDS011;32493;50.514;9.678;2024-03-23T09:31:41;5.32;;;1.35;;
46745;SDS011;32493;50.514;9.678;2024-03-23T09:34:07;6.95;;;1.10;;
46745;SDS011;32493;50.514;9.678;2024-03-23T09:36:42;6.70;;;1.48;;
46745;SDS011;32493;50.514;9.678;2024-03-23T09:39:11;4.45;;;0.80;;
46745;SDS011;32493;50.514;9.678;2024-03-23T09:41:38;4.20;;;1.38;;
46745;SDS011;32493;50.514;9.678;2024-03-23T09:44:07;5.32;;;1.95;;
46745;SDS011;32493;50.514;9.678;2024-03-23T09:46:34;5.20;;;1.88;;
46745;SDS011;32493;50.514;9.678;2024-03-23T09:49:01;7.22;;;1.42;;
46745;SDS011;32493;50.514;9.678;2024-03-23T09:51:29;6.53;;;1.70;;
46745;SDS011;32493;50.514;9.678;2024-03-23T09:54:00;8.15;;;2.40;;
46745;SDS011;32493;50.514;9.678;2024-03-23T09:56:27;6.32;;;2.20;;
46745;SDS011;32493;50.514;9.678;2024-03-23T09:59:02;7.97;;;1.88;;
46745;SDS011;32493;50.514;9.678;2024-03-23T10:01:31;10.07;;;2.58;;
46745;SDS011;32493;50.514;9.678;2024-03-23T10:03:58;5.78;;;1.67;;
46745;SDS011;32493;50.514;9.678;2024-03-23T10:06:27;7.60;;;2.38;;
46745;SDS011;32493;50.514;9.678;2024-03-23T10:08:54;5.75;;;2.15;;
46745;SDS011;32493;50.514;9.678;2024-03-23T10:11:26;9.48;;;3.30;;
46745;SDS011;32493;50.514;9.678;2024-03-23T10:13:56;12.18;;;4.30;;
46745;SDS011;32493;50.514;9.678;2024-03-23T10:16:27;7.35;;;2.92;;
46745;SDS011;32493;50.514;9.678;2024-03-23T10:18:53;5.57;;;2.30;;
46745;SDS011;32493;50.514;9.678;2024-03-23T10:21:22;5.38;;;2.63;;
46745;SDS011;32493;50.514;9.678;2024-03-23T10:23:49;12.52;;;2.85;;
46745;SDS011;32493;50.514;9.678;2024-03-23T10:26:18;7.43;;;2.97;;
46745;SDS011;32493;50.514;9.678;2024-03-23T10:28:57;14.25;;;2.80;;
46745;SDS011;32493;50.514;9.678;2024-03-23T10:31:27;7.93;;;3.00;;
46745;SDS011;32493;50.514;9.678;2024-03-23T10:33:54;9.30;;;3.13;;
46745;SDS011;32493;50.514;9.678;2024-03-23T10:36:23;6.68;;;2.30;;
46745;SDS011;32493;50.514;9.678;2024-03-23T10:41:19;6.05;;;2.20;;
46745;SDS011;32493;50.514;9.678;2024-03-23T10:43:48;4.20;;;1.95;;
46745;SDS011;32493;50.514;9.678;2024-03-23T10:46:22;4.20;;;1.50;;
46745;SDS011;32493;50.514;9.678;2024-03-23T10:48:48;5.38;;;2.20;;
46745;SDS011;32493;50.514;9.678;2024-03-23T10:51:21;5.78;;;2.13;;
46745;SDS011;32493;50.514;9.678;2024-03-23T10:53:50;5.85;;;1.38;;
46745;SDS011;32493;50.514;9.678;2024-03-23T10:56:20;6.00;;;1.75;;
46745;SDS011;32493;50.514;9.678;2024-03-23T10:58:49;7.90;;;2.00;;
46745;SDS011;32493;50.514;9.678;2024-03-23T11:01:18;7.43;;;1.92;;
46745;SDS011;32493;50.514;9.678;2024-03-23T11:03:48;2.63;;;1.13;;
46745;SDS011;32493;50.514;9.678;2024-03-23T11:06:33;5.60;;;1.27;;
46745;SDS011;32493;50.514;9.678;2024-03-23T11:09:03;5.07;;;1.90;;
46745;SDS011;32493;50.514;9.678;2024-03-23T11:11:32;5.50;;;1.75;;
46745;SDS011;32493;50.514;9.678;2024-03-23T11:13:59;5.43;;;2.25;;
46745;SDS011;32493;50.514;9.678;2024-03-23T11:16:32;3.78;;;1.55;;
46745;SDS011;32493;50.514;9.678;2024-03-23T11:21:55;9.63;;;2.05;;
46745;SDS011;32493;50.514;9.678;2024-03-23T11:24:22;6.60;;;1.07;;
46745;SDS011;32493;50.514;9.678;2024-03-23T11:26:52;8.55;;;1.80;;
46745;SDS011;32493;50.514;9.678;2024-03-23T11:29:19;5.18;;;1.30;;
46745;SDS011;32493;50.514;9.678;2024-03-23T11:31:49;9.10;;;1.90;;
46745;SDS011;32493;50.514;9.678;2024-03-23T11:34:20;8.98;;;2.65;;
46745;SDS011;32493;50.514;9.678;2024-03-23T11:36:49;3.53;;;1.17;;
46745;SDS011;32493;50.514;9.678;2024-03-23T11:39:16;5.68;;;2.00;;
46745;SDS011;32493;50.514;9.678;2024-03-23T11:41:47;4.85;;;1.08;;
46745;SDS011;32493;50.514;9.678;2024-03-23T11:44:14;6.88;;;1.42;;
46745;SDS011;32493;50.514;9.678;2024-03-23T11:46:46;6.55;;;1.30;;
46745;SDS011;32493;50.514;9.678;2024-03-23T11:49:21;8.30;;;1.45;;
46745;SDS011;32493;50.514;9.678;2024-03-23T11:51:51;4.40;;;1.02;;
46745;SDS011;32493;50.514;9.678;2024-03-23T11:54:20;4.13;;;1.08;;
46745;SDS011;32493;50.514;9.678;2024-03-23T11:56:56;5.03;;;0.98;;
46745;SDS011;32493;50.514;9.678;2024-03-23T11:59:34;1.40;;;0.40;;
46745;SDS011;32493;50.514;9.678;2024-03-23T12:02:11;1.60;;;0.77;;
46745;SDS011;32493;50.514;9.678;2024-03-23T12:04:39;3.08;;;0.88;;
46745;SDS011;32493;50.514;9.678;2024-03-23T12:07:10;3.58;;;0.75;;
46745;SDS011;32493;50.514;9.678;2024-03-23T12:09:40;4.53;;;1.10;;
46745;SDS011;32493;50.514;9.678;2024-03-23T12:12:08;3.55;;;1.00;;
46745;SDS011;32493;50.514;9.678;2024-03-23T12:14:36;2.42;;;0.52;;
46745;SDS011;32493;50.514;9.678;2024-03-23T12:19:39;4.53;;;0.95;;
46745;SDS011;32493;50.514;9.678;2024-03-23T12:22:06;1.92;;;1.15;;
46745;SDS011;32493;50.514;9.678;2024-03-23T12:24:34;2.60;;;1.00;;
46745;SDS011;32493;50.514;9.678;2024-03-23T12:27:01;5.70;;;1.10;;
46745;SDS011;32493;50.514;9.678;2024-03-23T12:29:31;5.15;;;1.08;;
46745;SDS011;32493;50.514;9.678;2024-03-23T12:31:59;4.90;;;1.25;;
46745;SDS011;32493;50.514;9.678;2024-03-23T12:34:30;6.30;;;1.20;;
46745;SDS011;32493;50.514;9.678;2024-03-23T12:36:56;2.88;;;1.30;;
46745;SDS011;32493;50.514;9.678;2024-03-23T12:39:23;4.97;;;1.30;;
46745;SDS011;32493;50.514;9.678;2024-03-23T12:41:52;7.55;;;1.48;;
46745;SDS011;32493;50.514;9.678;2024-03-23T12:44:20;5.82;;;0.88;;
46745;SDS011;32493;50.514;9.678;2024-03-23T12:46:48;2.42;;;0.98;;
46745;SDS011;32493;50.514;9.678;2024-03-23T12:49:15;6.13;;;1.40;;
46745;SDS011;32493;50.514;9.678;2024-03-23T12:51:46;7.85;;;1.77;;
46745;SDS011;32493;50.514;9.678;2024-03-23T12:54:15;9.10;;;1.80;;
46745;SDS011;32493;50.514;9.678;2024-03-23T12:56:42;5.70;;;1.30;;
46745;SDS011;32493;50.514;9.678;2024-03-23T12:59:09;6.18;;;1.13;;
46745;SDS011;32493;50.514;9.678;2024-03-23T13:01:40;8.45;;;1.60;;
46745;SDS011;32493;50.514;9.678;2024-03-23T13:04:06;5.47;;;1.25;;
46745;SDS011;32493;50.514;9.678;2024-03-23T13:06:33;0.82;;;0.50;;
46745;SDS011;32493;50.514;9.678;2024-03-23T13:09:04;2.08;;;0.68;;
46745;SDS011;32493;50.514;9.678;2024-03-23T13:11:30;1.23;;;0.50;;
46745;SDS011;32493;50.514;9.678;2024-03-23T13:14:00;1.85;;;0.57;;
46745;SDS011;32493;50.514;9.678;2024-03-23T13:16:26;3.33;;;0.50;;
46745;SDS011;32493;50.514;9.678;2024-03-23T13:18:55;2.55;;;0.70;;
46745;SDS011;32493;50.514;9.678;2024-03-23T13:23:49;6.60;;;0.82;;
46745;SDS011;32493;50.514;9.678;2024-03-23T13:26:20;3.05;;;0.90;;
46745;SDS011;32493;50.514;9.678;2024-03-23T13:28:48;5.50;;;1.08;;
46745;SDS011;32493;50.514;9.678;2024-03-23T13:31:16;1.75;;;0.65;;
46745;SDS011;32493;50.514;9.678;2024-03-23T13:33:45;3.80;;;0.60;;
46745;SDS011;32493;50.514;9.678;2024-03-23T13:36:15;3.30;;;1.35;;
46745;SDS011;32493;50.514;9.678;2024-03-23T13:38:42;1.48;;;0.70;;
46745;SDS011;32493;50.514;9.678;2024-03-23T13:41:08;2.73;;;0.80;;
46745;SDS011;32493;50.514;9.678;2024-03-23T13:43:40;2.40;;;0.70;;
46745;SDS011;32493;50.514;9.678;2024-03-23T13:46:10;4.65;;;1.10;;
46745;SDS011;32493;50.514;9.678;2024-03-23T13:48:39;3.10;;;1.08;;
46745;SDS011;32493;50.514;9.678;2024-03-23T13:51:06;3.85;;;0.80;;
46745;SDS011;32493;50.514;9.678;2024-03-23T13:53:34;3.28;;;0.85;;
46745;SDS011;32493;50.514;9.678;2024-03-23T13:56:00;4.78;;;1.42;;
46745;SDS011;32493;50.514;9.678;2024-03-23T13:58:30;4.15;;;0.90;;
46745;SDS011;32493;50.514;9.678;2024-03-23T14:01:00;5.43;;;1.10;;
46745;SDS011;32493;50.514;9.678;2024-03-23T14:03:27;7.57;;;1.67;;
46745;SDS011;32493;50.514;9.678;2024-03-23T14:05:57;6.22;;;1.58;;
46745;SDS011;32493;50.514;9.678;2024-03-23T14:08:24;4.70;;;1.60;;
46745;SDS011;32493;50.514;9.678;2024-03-23T14:15:44;4.60;;;1.42;;
46745;SDS011;32493;50.514;9.678;2024-03-23T14:18:13;4.88;;;1.50;;
46745;SDS011;32493;50.514;9.678;2024-03-23T14:20:40;7.30;;;1.58;;
46745;SDS011;32493;50.514;9.678;2024-03-23T14:23:08;4.40;;;1.55;;
46745;SDS011;32493;50.514;9.678;2024-03-23T14:25:38;5.75;;;1.55;;
46745;SDS011;32493;50.514;9.678;2024-03-23T14:28:05;4.97;;;1.88;;
46745;SDS011;32493;50.514;9.678;2024-03-23T14:30:33;6.30;;;1.80;;
46745;SDS011;32493;50.514;9.678;2024-03-23T14:33:01;2.72;;;1.45;;
46745;SDS011;32493;50.514;9.678;2024-03-23T14:35:32;4.28;;;1.67;;
46745;SDS011;32493;50.514;9.678;2024-03-23T14:38:01;6.07;;;2.10;;
46745;SDS011;32493;50.514;9.678;2024-03-23T14:40:28;6.22;;;1.77;;
46745;SDS011;32493;50.514;9.678;2024-03-23T14:42:57;7.57;;;2.35;;
46745;SDS011;32493;50.514;9.678;2024-03-23T14:45:23;5.15;;;1.83;;
46745;SDS011;32493;50.514;9.678;2024-03-23T14:47:50;5.13;;;1.60;;
46745;SDS011;32493;50.514;9.678;2024-03-23T14:50:19;4.65;;;1.65;;
46745;SDS011;32493;50.514;9.678;2024-03-23T14:52:51;2.55;;;1.48;;
46745;SDS011;32493;50.514;9.678;2024-03-23T14:55:17;3.22;;;1.73;;
46745;SDS011;32493;50.514;9.678;2024-03-23T14:57:43;4.28;;;1.45;;
46745;SDS011;32493;50.514;9.678;2024-03-23T15:00:10;2.83;;;1.52;;
46745;SDS011;32493;50.514;9.678;2024-03-23T15:02:37;5.35;;;1.60;;
46745;SDS011;32493;50.514;9.678;2024-03-23T15:05:05;4.07;;;1.50;;
46745;SDS011;32493;50.514;9.678;2024-03-23T15:07:35;4.63;;;1.45;;
46745;SDS011;32493;50.514;9.678;2024-03-23T15:10:05;4.63;;;1.30;;
46745;SDS011;32493;50.514;9.678;2024-03-23T15:12:32;4.25;;;1.30;;
46745;SDS011;32493;50.514;9.678;2024-03-23T15:15:01;4.45;;;1.90;;
46745;SDS011;32493;50.514;9.678;2024-03-23T15:17:29;3.75;;;1.33;;
46745;SDS011;32493;50.514;9.678;2024-03-23T15:19:55;4.03;;;1.30;;
46745;SDS011;32493;50.514;9.678;2024-03-23T15:22:23;3.55;;;1.20;;
46745;SDS011;32493;50.514;9.678;2024-03-23T15:24:54;2.70;;;1.15;;
46745;SDS011;32493;50.514;9.678;2024-03-23T15:27:25;4.80;;;1.45;;
46745;SDS011;32493;50.514;9.678;2024-03-23T15:29:52;2.58;;;1.27;;
46745;SDS011;32493;50.514;9.678;2024-03-23T15:32:21;2.97;;;1.40;;
46745;SDS011;32493;50.514;9.678;2024-03-23T15:34:52;2.47;;;1.40;;
46745;SDS011;32493;50.514;9.678;2024-03-23T15:37:25;4.43;;;1.33;;
46745;SDS011;32493;50.514;9.678;2024-03-23T15:39:52;1.83;;;1.23;;
46745;SDS011;32493;50.514;9.678;2024-03-23T15:42:18;3.83;;;1.30;;
46745;SDS011;32493;50.514;9.678;2024-03-23T15:44:52;3.75;;;1.00;;
46745;SDS011;32493;50.514;9.678;2024-03-23T15:47:22;3.65;;;1.33;;
46745;SDS011;32493;50.514;9.678;2024-03-23T15:49:50;6.30;;;1.13;;
46745;SDS011;32493;50.514;9.678;2024-03-23T15:52:17;3.97;;;1.17;;
46745;SDS011;32493;50.514;9.678;2024-03-23T15:54:46;3.83;;;1.58;;
46745;SDS011;32493;50.514;9.678;2024-03-23T15:57:17;4.25;;;1.58;;
46745;SDS011;32493;50.514;9.678;2024-03-23T15:59:43;3.50;;;1.33;;
46745;SDS011;32493;50.514;9.678;2024-03-23T16:02:12;1.33;;;0.90;;
46745;SDS011;32493;50.514;9.678;2024-03-23T16:04:38;3.15;;;1.33;;